createdAt,value
2023-03-26T00:01:23.909Z,99646.81
2023-03-26T00:03:55.330Z,99654.81
2023-03-26T00:06:37.629Z,99659.00
2023-03-26T00:09:08.222Z,99642.37
2023-03-26T00:11:35.945Z,99656.84
2023-03-26T00:14:03.793Z,99651.59
2023-03-26T00:16:32.118Z,99646.81
2023-03-26T00:19:00.202Z,99646.06
2023-03-26T00:21:30.277Z,99654.91
2023-03-26T00:24:01.207Z,99653.38
2023-03-26T00:26:31.183Z,99651.37
2023-03-26T00:29:00.321Z,99652.56
2023-03-26T00:31:27.980Z,99650.41
2023-03-26T00:33:55.780Z,99656.28
2023-03-26T00:36:27.745Z,99657.47
2023-03-26T00:38:55.520Z,99649.47
2023-03-26T00:41:26.113Z,99646.59
2023-03-26T00:43:57.928Z,99643.00
2023-03-26T00:46:26.941Z,99641.81
2023-03-26T00:48:58.792Z,99634.66
2023-03-26T00:51:27.837Z,99636.31
2023-03-26T00:53:55.696Z,99627.13
2023-03-26T00:56:23.060Z,99625.09
2023-03-26T00:58:50.588Z,99615.78
2023-03-26T01:01:27.324Z,99619.50
2023-03-26T01:04:08.266Z,99620.53
2023-03-26T01:06:41.515Z,99619.22
2023-03-26T01:09:17.728Z,99621.50
2023-03-26T01:11:46.609Z,99624.97
2023-03-26T01:14:19.626Z,99620.91
2023-03-26T01:16:56.304Z,99620.91
2023-03-26T01:19:49.003Z,99616.75
2023-03-26T01:22:19.552Z,99616.97
2023-03-26T01:24:53.071Z,99614.13
2023-03-26T01:27:33.696Z,99609.12
2023-03-26T01:30:29.305Z,99614.59
2023-03-26T01:33:43.968Z,99616.38
2023-03-26T01:36:23.683Z,99615.94
2023-03-26T01:39:22.087Z,99617.81
2023-03-26T01:41:51.724Z,99619.37
2023-03-26T01:44:42.924Z,99615.81
2023-03-26T01:47:11.122Z,99620.09
2023-03-26T01:49:38.670Z,99619.50
2023-03-26T01:52:20.859Z,99614.50
2023-03-26T01:54:48.831Z,99623.22
2023-03-26T01:57:37.894Z,99617.47
2023-03-26T02:00:15.513Z,99621.75
2023-03-26T02:03:01.357Z,99618.66
2023-03-26T02:05:33.586Z,99626.31
2023-03-26T02:08:21.131Z,99634.41
2023-03-26T02:10:57.565Z,99641.31
2023-03-26T02:13:25.896Z,99633.56
2023-03-26T02:16:01.743Z,99628.56
2023-03-26T02:18:41.468Z,99628.44
2023-03-26T02:21:22.741Z,99637.41
2023-03-26T02:23:58.111Z,99632.16
2023-03-26T02:26:25.898Z,99633.69
2023-03-26T02:28:53.662Z,99623.78
2023-03-26T02:31:21.956Z,99627.69
2023-03-26T02:33:49.616Z,99634.87
2023-03-26T02:36:19.631Z,99625.88
2023-03-26T02:38:47.974Z,99628.25
2023-03-26T02:41:15.426Z,99624.31
2023-03-26T02:43:44.671Z,99622.75
2023-03-26T02:46:13.418Z,99631.72
2023-03-26T02:48:44.058Z,99627.41
2023-03-26T02:51:11.892Z,99627.19
2023-03-26T02:53:41.431Z,99627.47
2023-03-26T02:56:11.056Z,99625.38
2023-03-26T02:58:39.735Z,99619.97
2023-03-26T03:01:08.051Z,99627.78
2023-03-26T03:03:36.468Z,99624.91
2023-03-26T03:06:05.392Z,99622.28
2023-03-26T03:08:34.153Z,99617.28
2023-03-26T03:11:10.462Z,99620.09
2023-03-26T03:13:38.238Z,99616.53
2023-03-26T03:16:05.969Z,99619.81
2023-03-26T03:18:33.280Z,99613.25
2023-03-26T03:21:01.461Z,99611.66
2023-03-26T03:23:28.934Z,99619.44
2023-03-26T03:25:58.004Z,99615.84
2023-03-26T03:28:25.808Z,99620.66
2023-03-26T03:30:53.409Z,99625.78
2023-03-26T03:33:21.459Z,99621.66
2023-03-26T03:35:50.204Z,99613.91
2023-03-26T03:38:17.989Z,99618.94
2023-03-26T03:40:46.429Z,99615.97
2023-03-26T03:43:14.295Z,99616.97
2023-03-26T03:45:42.169Z,99614.78
2023-03-26T03:48:09.623Z,99610.88
2023-03-26T03:50:37.587Z,99617.16
2023-03-26T03:53:05.828Z,99614.53
2023-03-26T03:55:34.445Z,99613.69
2023-03-26T03:58:02.079Z,99614.72
2023-03-26T04:00:30.752Z,99624.72
2023-03-26T04:02:59.202Z,99618.63
2023-03-26T04:05:26.945Z,99635.59
2023-03-26T04:07:54.087Z,99638.78
2023-03-26T04:10:23.769Z,99641.94
2023-03-26T04:12:54.272Z,99643.00
2023-03-26T04:15:22.071Z,99645.75
2023-03-26T04:17:49.616Z,99649.13
2023-03-26T04:20:17.286Z,99648.81
2023-03-26T04:22:44.631Z,99647.16
2023-03-26T04:25:13.454Z,99644.75
2023-03-26T04:27:44.144Z,99643.84
2023-03-26T04:30:15.762Z,99634.66
2023-03-26T04:32:44.823Z,99653.47
2023-03-26T04:35:16.707Z,99634.66
2023-03-26T04:37:46.186Z,99638.84
2023-03-26T04:40:21.992Z,99642.81
2023-03-26T04:42:49.617Z,99639.69
2023-03-26T04:45:22.729Z,99644.69
2023-03-26T04:47:53.009Z,99646.81
2023-03-26T04:50:21.031Z,99645.09
2023-03-26T04:52:48.313Z,99649.09
2023-03-26T04:55:28.281Z,99634.56
2023-03-26T04:58:00.204Z,99647.81
2023-03-26T05:00:29.177Z,99647.84
2023-03-26T05:03:01.698Z,99655.19
2023-03-26T05:05:29.407Z,99644.28
2023-03-26T05:07:57.923Z,99647.06
2023-03-26T05:10:25.418Z,99643.56
2023-03-26T05:12:53.009Z,99645.53
2023-03-26T05:15:21.719Z,99647.31
2023-03-26T05:17:50.238Z,99643.84
2023-03-26T05:20:20.866Z,99653.19
2023-03-26T05:22:49.619Z,99647.62
2023-03-26T05:25:17.871Z,99652.66
2023-03-26T05:27:45.996Z,99653.00
2023-03-26T05:30:16.190Z,99653.38
2023-03-26T05:32:44.185Z,99649.87
2023-03-26T05:35:12.718Z,99645.81
2023-03-26T05:37:40.599Z,99643.72
2023-03-26T05:40:11.773Z,99645.16
2023-03-26T05:42:41.811Z,99640.25
2023-03-26T05:45:11.745Z,99642.53
2023-03-26T05:47:39.075Z,99641.94
2023-03-26T05:50:07.853Z,99647.03
2023-03-26T05:52:36.027Z,99644.59
2023-03-26T05:55:08.337Z,99641.69
2023-03-26T05:57:47.699Z,99651.72
2023-03-26T06:00:18.571Z,99649.31
2023-03-26T06:02:46.975Z,99646.19
2023-03-26T06:05:16.965Z,99646.53
2023-03-26T06:07:44.975Z,99638.94
2023-03-26T06:10:18.012Z,99635.81
2023-03-26T06:12:46.424Z,99631.00
2023-03-26T06:15:13.742Z,99640.94
2023-03-26T06:17:41.169Z,99632.34
2023-03-26T06:20:10.528Z,99633.84
2023-03-26T06:22:38.066Z,99633.81
2023-03-26T06:25:08.254Z,99643.72
2023-03-26T06:27:36.312Z,99650.56
2023-03-26T06:30:04.348Z,99671.50
2023-03-26T06:32:32.616Z,99691.28
2023-03-26T06:35:00.882Z,99684.03
2023-03-26T06:37:28.473Z,99693.78
2023-03-26T06:39:56.260Z,99696.78
2023-03-26T06:42:32.056Z,99705.22
2023-03-26T06:45:11.607Z,99698.63
2023-03-26T06:47:44.388Z,99704.59
2023-03-26T06:50:13.271Z,99697.78
2023-03-26T06:52:43.028Z,99699.50
2023-03-26T06:55:11.129Z,99707.31
2023-03-26T06:57:39.277Z,99711.50
2023-03-26T07:00:08.867Z,99696.56
2023-03-26T07:02:40.651Z,99698.69
2023-03-26T07:05:22.844Z,99694.69
2023-03-26T07:08:00.715Z,99697.63
2023-03-26T07:10:45.009Z,99694.72
2023-03-26T07:13:12.854Z,99700.16
2023-03-26T07:15:49.111Z,99701.72
2023-03-26T07:18:16.661Z,99709.75
2023-03-26T07:20:46.164Z,99702.94
2023-03-26T07:23:15.655Z,99697.94
2023-03-26T07:25:43.733Z,99696.87
2023-03-26T07:28:12.376Z,99694.25
2023-03-26T07:31:07.513Z,99688.59
2023-03-26T07:33:48.852Z,99694.16
2023-03-26T07:36:23.548Z,99696.25
2023-03-26T07:39:13.044Z,99690.25
2023-03-26T07:41:46.468Z,99691.44
2023-03-26T07:44:26.028Z,99685.25
2023-03-26T07:46:54.070Z,99687.34
2023-03-26T07:49:22.394Z,99685.38
2023-03-26T07:51:54.277Z,99680.91
2023-03-26T07:54:22.163Z,99676.25
2023-03-26T07:56:58.592Z,99675.47
2023-03-26T07:59:49.281Z,99677.50
2023-03-26T08:02:45.090Z,99681.06
2023-03-26T08:05:39.908Z,99681.06
2023-03-26T08:08:46.509Z,99676.16
2023-03-26T08:11:56.064Z,99678.41
2023-03-26T08:14:26.386Z,99669.34
2023-03-26T08:17:09.161Z,99673.25
2023-03-26T08:19:40.921Z,99669.28
2023-03-26T08:22:15.604Z,99666.66
2023-03-26T08:25:04.667Z,99667.94
2023-03-26T08:27:38.742Z,99659.84
2023-03-26T08:30:08.974Z,99671.22
2023-03-26T08:32:36.628Z,99663.81
2023-03-26T08:35:05.089Z,99666.25
2023-03-26T08:37:32.407Z,99664.31
2023-03-26T08:40:19.877Z,99664.66
2023-03-26T08:43:10.582Z,99664.44
2023-03-26T08:45:51.450Z,99655.50
2023-03-26T08:48:37.562Z,99656.19
2023-03-26T08:51:15.356Z,99655.97
2023-03-26T08:53:50.031Z,99654.59
2023-03-26T08:56:41.728Z,99643.13
2023-03-26T08:59:28.166Z,99643.59
2023-03-26T09:02:05.737Z,99644.13
2023-03-26T09:05:11.266Z,99635.50
2023-03-26T09:08:30.136Z,99630.94
2023-03-26T09:11:04.618Z,99640.47
2023-03-26T09:13:53.519Z,99631.84
2023-03-26T09:16:27.387Z,99624.69
2023-03-26T09:19:19.851Z,99624.12
2023-03-26T09:21:47.581Z,99627.37
2023-03-26T09:24:27.801Z,99621.47
2023-03-26T09:27:26.155Z,99621.22
2023-03-26T09:30:06.852Z,99617.72
2023-03-26T09:32:43.335Z,99597.16
2023-03-26T09:35:24.910Z,99598.78
2023-03-26T09:37:57.108Z,99605.25
2023-03-26T09:40:51.239Z,99593.00
2023-03-26T09:43:36.304Z,99585.69
2023-03-26T09:46:06.804Z,99581.03
2023-03-26T09:48:37.721Z,99585.00
2023-03-26T09:51:26.131Z,99580.56
2023-03-26T09:54:14.651Z,99574.97
2023-03-26T09:56:58.148Z,99569.00
2023-03-26T09:59:28.885Z,99569.81
2023-03-26T10:02:18.524Z,99564.66
2023-03-26T10:05:08.289Z,99560.88
2023-03-26T10:07:56.314Z,99564.81
2023-03-26T10:10:49.159Z,99554.91
2023-03-26T10:13:54.130Z,99545.97
2023-03-26T10:16:29.881Z,99551.94
2023-03-26T10:19:16.819Z,99545.03
2023-03-26T10:22:11.150Z,99536.31
2023-03-26T10:24:58.202Z,99524.25
2023-03-26T10:27:49.477Z,99511.34
2023-03-26T10:30:25.948Z,99522.22
2023-03-26T10:32:58.064Z,99513.75
2023-03-26T10:35:56.610Z,99503.72
2023-03-26T10:39:02.941Z,99499.31
2023-03-26T10:41:51.052Z,99497.03
2023-03-26T10:44:24.969Z,99490.44
2023-03-26T10:47:10.562Z,99488.75
2023-03-26T10:49:50.122Z,99486.62
2023-03-26T10:52:26.004Z,99487.09
2023-03-26T10:55:23.591Z,99482.25
2023-03-26T10:58:03.626Z,99477.53
2023-03-26T11:00:40.277Z,99482.06
2023-03-26T11:03:27.863Z,99464.41
2023-03-26T11:06:08.142Z,99457.22
2023-03-26T11:08:59.765Z,99449.56
2023-03-26T11:11:34.035Z,99445.16
2023-03-26T11:14:10.812Z,99450.84
2023-03-26T11:16:45.704Z,99444.31
2023-03-26T11:19:22.623Z,99431.28
2023-03-26T11:21:56.790Z,99429.19
2023-03-26T11:24:47.034Z,99422.06
2023-03-26T11:27:22.625Z,99431.09
2023-03-26T11:30:15.998Z,99426.19
2023-03-26T11:32:46.758Z,99404.19
2023-03-26T11:35:46.326Z,99409.88
2023-03-26T11:38:29.086Z,99409.03
2023-03-26T11:40:59.122Z,99392.34
2023-03-26T11:43:33.677Z,99388.03
2023-03-26T11:46:03.731Z,99393.50
2023-03-26T11:48:38.124Z,99384.09
2023-03-26T11:51:12.047Z,99375.03
2023-03-26T11:53:49.353Z,99378.16
2023-03-26T11:57:05.148Z,99367.28
2023-03-26T11:59:55.448Z,99372.28
2023-03-26T12:02:36.149Z,99355.50
2023-03-26T12:05:21.112Z,99360.31
2023-03-26T12:07:54.701Z,99358.75
2023-03-26T12:10:25.739Z,99350.12
2023-03-26T12:12:56.624Z,99348.50
2023-03-26T12:15:25.014Z,99343.91
2023-03-26T12:17:56.647Z,99343.28
2023-03-26T12:20:27.625Z,99334.44
2023-03-26T12:23:03.521Z,99325.97
2023-03-26T12:25:39.145Z,99323.78
2023-03-26T12:28:16.294Z,99310.50
2023-03-26T12:31:19.413Z,99308.09
2023-03-26T12:34:35.001Z,99306.16
2023-03-26T12:37:05.598Z,99298.19
2023-03-26T12:40:11.790Z,99287.66
2023-03-26T12:44:49.204Z,99282.84
2023-03-26T12:47:54.133Z,99281.94
2023-03-26T12:48:38.180Z,99275.28
2023-03-26T12:51:23.834Z,99268.94
2023-03-26T12:54:23.775Z,99269.22
2023-03-26T12:57:13.696Z,99262.00
2023-03-26T13:00:20.096Z,99264.69
2023-03-26T13:02:59.140Z,99249.88
2023-03-26T13:05:36.804Z,99261.19
2023-03-26T13:08:15.939Z,99248.41
2023-03-26T13:11:17.536Z,99242.84
2023-03-26T13:13:56.447Z,99236.06
2023-03-26T13:16:24.101Z,99225.56
2023-03-26T13:18:57.954Z,99226.16
2023-03-26T13:21:46.153Z,99224.53
2023-03-26T13:24:38.697Z,99220.00
2023-03-26T13:27:36.373Z,99213.81
2023-03-26T13:30:31.433Z,99209.22
2023-03-26T13:33:11.290Z,99202.84
2023-03-26T13:36:23.163Z,99199.34
2023-03-26T13:38:58.792Z,99177.13
2023-03-26T13:41:34.221Z,99185.34
2023-03-26T13:44:17.753Z,99177.94
2023-03-26T13:46:48.960Z,99173.78
2023-03-26T13:49:33.846Z,99173.66
2023-03-26T13:52:10.920Z,99158.12
2023-03-26T13:54:52.358Z,99163.09
2023-03-26T14:01:08.253Z,99161.47
2023-03-26T14:03:53.365Z,99150.84
2023-03-26T14:06:42.508Z,99155.37
2023-03-26T14:09:18.180Z,99146.69
2023-03-26T14:11:58.270Z,99143.59
2023-03-26T14:14:31.640Z,99141.16
2023-03-26T14:17:05.403Z,99131.87
2023-03-26T14:20:10.063Z,99135.38
2023-03-26T14:22:53.018Z,99144.19
2023-03-26T14:25:32.599Z,99128.50
2023-03-26T14:28:24.418Z,99136.69
2023-03-26T14:31:04.062Z,99127.22
2023-03-26T14:33:34.242Z,99132.59
2023-03-26T14:36:13.734Z,99124.72
2023-03-26T14:38:48.108Z,99118.47
2023-03-26T14:41:22.534Z,99117.66
2023-03-26T14:44:21.138Z,99110.22
2023-03-26T14:47:17.243Z,99110.22
2023-03-26T14:53:45.075Z,99100.19
2023-03-26T14:56:52.033Z,99092.72
2023-03-26T14:59:47.872Z,99085.59
2023-03-26T15:02:37.378Z,99077.84
2023-03-26T15:05:27.184Z,99063.09
2023-03-26T15:08:39.006Z,99065.41
2023-03-26T15:11:47.263Z,99065.22
2023-03-26T15:14:41.774Z,99057.47
2023-03-26T15:18:00.487Z,99045.03
2023-03-26T15:20:52.627Z,99044.22
2023-03-26T15:23:38.863Z,99048.78
2023-03-26T15:26:27.884Z,99038.47
2023-03-26T15:29:43.190Z,99040.53
2023-03-26T15:32:40.800Z,99033.63
2023-03-26T15:35:37.113Z,99032.22
2023-03-26T15:38:12.415Z,99028.38
2023-03-26T15:41:05.285Z,99026.84
2023-03-26T15:46:55.359Z,99022.06
2023-03-26T15:49:23.041Z,99028.19
2023-03-26T15:52:13.214Z,99019.81
2023-03-26T15:55:19.116Z,99017.59
2023-03-26T15:58:01.785Z,99013.47
2023-03-26T16:00:34.739Z,99017.87
2023-03-26T16:03:10.930Z,99006.56
2023-03-26T16:06:23.911Z,99005.88
2023-03-26T16:09:23.780Z,98990.91
2023-03-26T16:11:58.816Z,98976.47
2023-03-26T16:14:36.943Z,98976.66
2023-03-26T16:17:08.278Z,98956.97
2023-03-26T16:20:13.807Z,98961.25
2023-03-26T16:22:55.658Z,98956.44
2023-03-26T16:26:00.121Z,98947.66
2023-03-26T16:28:49.115Z,98939.53
2023-03-26T16:31:38.239Z,98937.91
2023-03-26T16:34:09.996Z,98936.16
2023-03-26T16:36:43.491Z,98936.00
2023-03-26T16:39:23.148Z,98926.25
2023-03-26T16:42:06.362Z,98924.97
2023-03-26T16:44:44.249Z,98935.31
2023-03-26T16:47:25.166Z,98928.34
2023-03-26T16:50:30.501Z,98927.88
2023-03-26T16:53:33.190Z,98936.75
2023-03-26T16:56:04.976Z,98938.06
2023-03-26T16:58:40.193Z,98937.03
2023-03-26T17:01:10.198Z,98943.25
2023-03-26T17:03:46.395Z,98935.28
2023-03-26T17:06:30.097Z,98928.69
2023-03-26T17:09:21.046Z,98937.53
2023-03-26T17:12:00.153Z,98933.41
2023-03-26T17:14:49.535Z,98934.69
2023-03-26T17:17:39.729Z,98931.94
2023-03-26T17:20:33.967Z,98926.81
2023-03-26T17:23:29.836Z,98927.53
2023-03-26T17:26:07.314Z,98921.56
2023-03-26T17:28:50.986Z,98924.50
2023-03-26T17:31:31.989Z,98924.78
2023-03-26T17:34:51.182Z,98924.97
2023-03-26T17:37:22.610Z,98921.22
2023-03-26T17:39:51.221Z,98922.22
2023-03-26T17:42:27.736Z,98917.63
2023-03-26T17:44:58.650Z,98913.13
2023-03-26T17:47:40.347Z,98926.91
2023-03-26T17:50:13.628Z,98921.97
2023-03-26T17:52:48.791Z,98922.69
2023-03-26T17:55:22.041Z,98924.44
2023-03-26T17:58:20.660Z,98917.50
2023-03-26T18:01:14.796Z,98914.31
2023-03-26T18:03:51.545Z,98920.59
2023-03-26T18:06:55.798Z,98917.13
2023-03-26T18:09:54.598Z,98919.44
2023-03-26T18:13:12.665Z,98919.03
2023-03-26T18:15:50.879Z,98913.22
2023-03-26T18:18:40.667Z,98916.13
2023-03-26T18:21:21.248Z,98905.94
2023-03-26T18:23:51.383Z,98906.59
2023-03-26T18:26:39.810Z,98914.88
2023-03-26T18:29:28.920Z,98917.53
2023-03-26T18:32:04.229Z,98905.94
2023-03-26T18:34:36.691Z,98908.22
2023-03-26T18:37:12.711Z,98909.19
2023-03-26T18:39:43.764Z,98890.81
2023-03-26T18:42:22.559Z,98896.22
2023-03-26T18:44:59.706Z,98888.91
2023-03-26T18:47:39.191Z,98884.09
2023-03-26T18:50:40.242Z,98886.25
2023-03-26T18:53:19.036Z,98880.59
2023-03-26T18:55:55.214Z,98868.44
2023-03-26T18:58:41.287Z,98873.31
2023-03-26T19:01:20.248Z,98863.97
2023-03-26T19:03:54.361Z,98864.28
2023-03-26T19:06:24.025Z,98855.84
2023-03-26T19:08:55.365Z,98849.06
2023-03-26T19:11:26.860Z,98849.69
2023-03-26T19:14:29.504Z,98846.78
2023-03-26T19:17:05.447Z,98850.78
2023-03-26T19:19:38.085Z,98839.50
2023-03-26T19:22:09.455Z,98837.56
2023-03-26T19:24:39.551Z,98842.91
2023-03-26T19:27:10.259Z,98836.78
2023-03-26T19:29:40.018Z,98835.03
2023-03-26T19:32:22.602Z,98822.88
2023-03-26T19:34:52.978Z,98816.50
2023-03-26T19:37:28.648Z,98820.56
2023-03-26T19:40:22.037Z,98823.78
2023-03-26T19:42:51.310Z,98811.94
2023-03-26T19:45:26.438Z,98802.25
2023-03-26T19:48:07.753Z,98795.13
2023-03-26T19:50:53.366Z,98783.53
2023-03-26T19:53:34.310Z,98784.66
2023-03-26T19:56:14.047Z,98786.41
2023-03-26T19:58:43.671Z,98775.59
2023-03-26T20:01:21.699Z,98771.47
2023-03-26T20:04:06.929Z,98760.16
2023-03-26T20:06:43.853Z,98753.44
2023-03-26T20:09:16.577Z,98753.63
2023-03-26T20:11:47.201Z,98746.41
2023-03-26T20:14:26.448Z,98735.19
2023-03-26T20:17:02.361Z,98728.97
2023-03-26T20:19:31.319Z,98716.34
2023-03-26T20:21:59.458Z,98713.69
2023-03-26T20:24:27.835Z,98705.22
2023-03-26T20:26:56.950Z,98698.28
2023-03-26T20:29:25.248Z,98696.66
2023-03-26T20:31:52.975Z,98694.72
2023-03-26T20:34:25.056Z,98679.53
2023-03-26T20:36:56.195Z,98680.91
2023-03-26T20:39:25.674Z,98697.50
2023-03-26T20:41:54.964Z,98683.19
2023-03-26T20:44:27.343Z,98693.22
2023-03-26T20:46:56.632Z,98688.72
2023-03-26T20:49:25.684Z,98691.88
2023-03-26T20:51:55.033Z,98682.75
2023-03-26T20:54:25.267Z,98689.25
2023-03-26T20:56:54.325Z,98683.94
2023-03-26T20:59:26.901Z,98681.31
2023-03-26T21:01:56.810Z,98681.78
2023-03-26T21:04:25.074Z,98678.44
2023-03-26T21:06:57.566Z,98670.91
2023-03-26T21:09:35.482Z,98674.53
2023-03-26T21:12:05.833Z,98670.66
2023-03-26T21:14:44.342Z,98680.53
2023-03-26T21:17:20.739Z,98684.81
2023-03-26T21:19:49.295Z,98677.03
2023-03-26T21:22:32.116Z,98694.56
2023-03-26T21:25:15.404Z,98701.31
2023-03-26T21:28:42.496Z,98739.00
2023-03-26T21:31:18.651Z,98737.69
2023-03-26T21:33:47.877Z,98734.81
2023-03-26T21:36:18.101Z,98735.53
2023-03-26T21:38:46.064Z,98738.25
2023-03-26T21:41:27.063Z,98734.34
2023-03-26T21:43:54.738Z,98731.44
2023-03-26T21:46:22.228Z,98733.81
2023-03-26T21:48:49.598Z,98721.44
2023-03-26T21:51:21.227Z,98729.16
2023-03-26T21:53:49.024Z,98730.00
2023-03-26T21:56:35.597Z,98727.69
2023-03-26T21:59:08.902Z,98733.97
2023-03-26T22:01:47.834Z,98744.88
2023-03-26T22:04:31.629Z,98737.44
2023-03-26T22:07:10.269Z,98741.41
2023-03-26T22:09:38.144Z,98737.25
2023-03-26T22:12:05.856Z,98728.34
2023-03-26T22:14:33.814Z,98735.75
2023-03-26T22:17:01.236Z,98721.37
2023-03-26T22:19:30.285Z,98716.75
2023-03-26T22:22:01.494Z,98719.06
2023-03-26T22:24:29.225Z,98713.94
2023-03-26T22:26:56.650Z,98723.34
2023-03-26T22:29:23.918Z,98714.84
2023-03-26T22:31:51.632Z,98714.19
2023-03-26T22:34:19.773Z,98702.12
2023-03-26T22:36:46.942Z,98697.66
2023-03-26T22:39:14.397Z,98697.97
2023-03-26T22:41:41.698Z,98681.19
2023-03-26T22:44:19.837Z,98682.94
2023-03-26T22:46:51.488Z,98672.03
2023-03-26T22:49:18.986Z,98654.22
2023-03-26T22:51:50.393Z,98662.28
2023-03-26T22:54:18.343Z,98657.84
2023-03-26T22:56:45.900Z,98655.44
2023-03-26T22:59:13.317Z,98661.53
2023-03-26T23:01:41.559Z,98652.81
2023-03-26T23:04:08.766Z,98660.03
2023-03-26T23:06:35.916Z,98659.37
2023-03-26T23:09:03.911Z,98653.09
2023-03-26T23:11:31.204Z,98650.13
2023-03-26T23:13:58.460Z,98651.59
2023-03-26T23:16:26.574Z,98639.09
2023-03-26T23:18:53.723Z,98637.13
2023-03-26T23:21:21.846Z,98626.38
2023-03-26T23:23:52.234Z,98615.84
2023-03-26T23:26:19.605Z,98623.84
2023-03-26T23:28:46.855Z,98612.66
2023-03-26T23:31:14.368Z,98609.09
2023-03-26T23:33:50.274Z,98604.03
2023-03-26T23:36:19.329Z,98594.53
2023-03-26T23:38:48.289Z,98594.38
2023-03-26T23:41:17.653Z,98586.00
2023-03-26T23:43:53.936Z,98586.13
2023-03-26T23:46:30.951Z,98581.03
2023-03-26T23:49:00.124Z,98579.03
2023-03-26T23:51:31.930Z,98564.69
2023-03-26T23:54:00.284Z,98560.94
2023-03-26T23:56:27.830Z,98552.84
2023-03-26T23:58:55.306Z,98552.37
